createdAt,value
2023-01-02T00:00:51.147Z,29.22
2023-01-02T00:06:25.412Z,29.21
2023-01-02T00:08:55.731Z,29.27
2023-01-02T00:11:25.849Z,29.25
2023-01-02T00:13:56.986Z,29.22
2023-01-02T00:19:17.719Z,29.23
2023-01-02T00:21:47.141Z,29.26
2023-01-02T00:24:16.494Z,29.27
2023-01-02T00:26:45.743Z,29.25
2023-01-02T00:29:15.241Z,29.25
2023-01-02T00:31:44.608Z,29.23
2023-01-02T00:34:14.170Z,29.29
2023-01-02T00:36:43.639Z,29.24
2023-01-02T00:39:14.067Z,29.23
2023-01-02T00:41:43.475Z,29.27
2023-01-02T00:44:12.862Z,29.27
2023-01-02T00:46:50.121Z,29.23
2023-01-02T00:49:18.556Z,29.21
2023-01-02T00:51:48.094Z,29.28
2023-01-02T00:54:17.688Z,29.24
2023-01-02T00:56:47.006Z,29.26
2023-01-02T01:01:58.594Z,29.23
2023-01-02T01:04:28.021Z,29.23
2023-01-02T01:06:57.471Z,29.27
2023-01-02T01:09:31.168Z,29.20
2023-01-02T01:15:28.346Z,29.27
2023-01-02T01:17:58.485Z,29.26
2023-01-02T01:20:27.769Z,29.31
2023-01-02T01:22:57.514Z,29.25
2023-01-02T01:25:26.929Z,29.25
2023-01-02T01:27:56.338Z,29.26
2023-01-02T01:30:25.775Z,29.31
2023-01-02T01:32:55.188Z,29.32
2023-01-02T01:35:24.541Z,29.33
2023-01-02T01:37:54.515Z,29.35
2023-01-02T01:40:23.923Z,29.32
2023-01-02T01:42:59.040Z,29.31
2023-01-02T01:45:27.623Z,29.35
2023-01-02T01:47:57.634Z,29.37
2023-01-02T01:50:27.408Z,29.43
2023-01-02T01:53:01.595Z,29.39
2023-01-02T01:55:33.065Z,29.39
2023-01-02T01:58:06.889Z,29.35
2023-01-02T02:00:36.268Z,29.36
2023-01-02T02:03:07.164Z,29.37
2023-01-02T02:05:36.524Z,29.31
2023-01-02T02:08:16.592Z,29.35
2023-01-02T02:10:46.518Z,29.30
2023-01-02T02:13:15.906Z,29.30
2023-01-02T02:15:52.755Z,29.31
2023-01-02T02:18:26.800Z,29.28
2023-01-02T02:21:12.455Z,29.35
2023-01-02T02:24:02.039Z,29.38
2023-01-02T02:26:50.722Z,29.41
2023-01-02T02:29:27.238Z,29.38
2023-01-02T02:32:04.079Z,29.37
2023-01-02T02:34:50.917Z,29.40
2023-01-02T02:37:39.671Z,29.40
2023-01-02T02:40:10.408Z,29.37
2023-01-02T02:42:52.751Z,29.30
2023-01-02T02:45:32.673Z,29.43
2023-01-02T02:48:06.627Z,29.39
2023-01-02T02:50:41.308Z,29.35
2023-01-02T02:53:15.610Z,29.29
2023-01-02T02:55:49.096Z,29.30
2023-01-02T02:58:18.881Z,29.38
2023-01-02T03:00:49.716Z,29.37
2023-01-02T03:03:21.084Z,29.35
2023-01-02T03:06:08.397Z,29.38
2023-01-02T03:08:44.707Z,29.33
2023-01-02T03:11:14.047Z,29.37
2023-01-02T03:13:50.581Z,29.41
2023-01-02T03:16:33.974Z,29.38
2023-01-02T03:19:17.964Z,29.37
2023-01-02T03:21:54.628Z,29.34
2023-01-02T03:24:24.443Z,29.40
2023-01-02T03:26:55.248Z,29.39
2023-01-02T03:29:25.876Z,29.34
2023-01-02T03:31:57.486Z,29.37
2023-01-02T03:34:27.844Z,29.35
2023-01-02T03:37:04.270Z,29.32
2023-01-02T03:39:34.728Z,29.31
2023-01-02T03:42:08.211Z,29.31
2023-01-02T03:44:39.693Z,29.32
2023-01-02T03:47:12.969Z,29.32
2023-01-02T03:49:43.414Z,29.34
2023-01-02T03:52:16.945Z,29.33
2023-01-02T03:54:48.041Z,29.32
2023-01-02T03:57:18.791Z,29.29
2023-01-02T03:59:52.368Z,29.33
2023-01-02T04:02:26.735Z,29.37
2023-01-02T04:04:56.969Z,29.36
2023-01-02T04:07:37.447Z,29.30
2023-01-02T04:10:07.497Z,29.35
2023-01-02T04:12:38.531Z,29.30
2023-01-02T04:15:08.731Z,29.30
2023-01-02T04:17:43.109Z,29.30
2023-01-02T04:20:16.611Z,29.31
2023-01-02T04:22:47.387Z,29.30
2023-01-02T04:25:17.420Z,29.27
2023-01-02T04:27:51.616Z,29.30
2023-01-02T04:30:25.684Z,29.24
2023-01-02T04:32:54.944Z,29.26
2023-01-02T04:35:24.601Z,29.28
2023-01-02T04:37:55.588Z,29.31
2023-01-02T04:40:29.146Z,29.28
2023-01-02T04:42:58.994Z,29.30
2023-01-02T04:45:28.846Z,29.27
2023-01-02T04:47:59.936Z,29.29
2023-01-02T04:50:31.614Z,29.26
2023-01-02T04:53:04.074Z,29.32
2023-01-02T04:55:35.244Z,29.27
2023-01-02T04:58:04.660Z,29.24
2023-01-02T05:00:34.544Z,29.31
2023-01-02T05:03:04.540Z,29.26
2023-01-02T05:05:34.658Z,29.29
2023-01-02T05:08:04.088Z,29.24
2023-01-02T05:10:34.290Z,29.24
2023-01-02T05:13:05.592Z,29.26
2023-01-02T05:15:35.086Z,29.27
2023-01-02T05:18:05.683Z,29.27
2023-01-02T05:20:35.416Z,29.26
2023-01-02T05:23:23.750Z,29.30
2023-01-02T05:25:53.334Z,29.26
2023-01-02T05:28:22.907Z,29.30
2023-01-02T05:30:57.441Z,29.26
2023-01-02T05:33:27.138Z,29.27
2023-01-02T05:35:57.992Z,29.32
2023-01-02T05:38:30.451Z,29.29
2023-01-02T05:41:08.258Z,29.29
2023-01-02T05:43:40.743Z,29.32
2023-01-02T05:46:13.271Z,29.31
2023-01-02T05:48:42.647Z,29.30
2023-01-02T05:51:15.350Z,29.31
2023-01-02T05:53:44.050Z,29.29
2023-01-02T05:56:19.207Z,29.27
2023-01-02T05:58:54.832Z,29.30
2023-01-02T06:01:25.248Z,29.35
2023-01-02T06:04:04.992Z,29.29
2023-01-02T06:06:31.242Z,29.26
2023-01-02T06:09:07.557Z,29.33
2023-01-02T06:11:38.536Z,29.33
2023-01-02T06:14:10.797Z,29.30
2023-01-02T06:16:41.122Z,29.35
2023-01-02T06:19:10.853Z,29.38
2023-01-02T06:21:40.630Z,29.36
2023-01-02T06:24:10.464Z,29.39
2023-01-02T06:26:39.876Z,29.36
2023-01-02T06:29:09.369Z,29.35
2023-01-02T06:31:39.975Z,29.39
2023-01-02T06:34:09.747Z,29.34
2023-01-02T06:36:39.426Z,29.35
2023-01-02T06:39:09.165Z,29.34
2023-01-02T06:41:38.433Z,29.37
2023-01-02T06:44:07.998Z,29.40
2023-01-02T06:46:37.798Z,29.36
2023-01-02T06:49:07.079Z,29.39
2023-01-02T06:51:38.097Z,29.40
2023-01-02T06:54:07.720Z,29.41
2023-01-02T06:56:38.697Z,29.34
2023-01-02T06:59:08.331Z,29.39
2023-01-02T07:01:38.978Z,29.40
2023-01-02T07:04:11.491Z,29.39
2023-01-02T07:06:43.669Z,29.39
2023-01-02T07:09:12.851Z,29.43
2023-01-02T07:11:43.628Z,29.40
2023-01-02T07:14:14.278Z,29.40
2023-01-02T07:16:47.560Z,29.43
2023-01-02T07:19:16.982Z,29.45
2023-01-02T07:21:46.607Z,29.48
2023-01-02T07:24:16.487Z,29.43
2023-01-02T07:26:46.655Z,29.49
2023-01-02T07:29:16.266Z,29.44
2023-01-02T07:31:45.863Z,29.45
2023-01-02T07:34:15.175Z,29.44
2023-01-02T07:36:44.748Z,29.42
2023-01-02T07:39:14.596Z,29.46
2023-01-02T07:41:44.607Z,29.46
2023-01-02T07:44:14.205Z,29.42
2023-01-02T07:46:43.532Z,29.44
2023-01-02T07:49:15.873Z,29.47
2023-01-02T07:51:45.724Z,29.45
2023-01-02T07:54:15.388Z,29.48
2023-01-02T07:56:45.006Z,29.49
2023-01-02T07:59:14.841Z,29.49
2023-01-02T08:01:44.426Z,29.46
2023-01-02T08:04:13.917Z,29.47
2023-01-02T08:06:48.163Z,29.54
2023-01-02T08:09:20.452Z,29.56
2023-01-02T08:11:49.981Z,29.52
2023-01-02T08:14:23.745Z,29.51
2023-01-02T08:16:52.824Z,29.46
2023-01-02T08:19:22.122Z,29.48
2023-01-02T08:21:52.228Z,29.48
2023-01-02T08:24:30.734Z,29.49
2023-01-02T08:27:00.109Z,29.52
2023-01-02T08:29:29.573Z,29.54
2023-01-02T08:32:00.283Z,29.51
2023-01-02T08:34:29.821Z,29.55
2023-01-02T08:36:59.640Z,29.50
2023-01-02T08:39:28.877Z,29.49
2023-01-02T08:41:59.350Z,29.52
2023-01-02T08:44:28.785Z,29.51
2023-01-02T08:46:58.144Z,29.52
2023-01-02T08:49:28.207Z,29.55
2023-01-02T08:51:58.721Z,29.48
2023-01-02T08:54:27.993Z,29.49
2023-01-02T08:56:57.726Z,29.54
2023-01-02T08:59:27.509Z,29.61
2023-01-02T09:01:57.230Z,29.69
2023-01-02T09:04:28.531Z,29.65
2023-01-02T09:06:57.795Z,29.50
2023-01-02T09:09:27.611Z,29.51
2023-01-02T09:11:57.303Z,29.53
2023-01-02T09:14:27.137Z,29.55
2023-01-02T09:16:56.913Z,29.56
2023-01-02T09:19:27.221Z,29.58
2023-01-02T09:21:56.951Z,29.58
2023-01-02T09:24:26.240Z,29.63
2023-01-02T09:26:55.728Z,29.57
2023-01-02T09:29:25.505Z,29.59
2023-01-02T09:31:55.108Z,29.57
2023-01-02T09:34:24.627Z,29.63
2023-01-02T09:36:54.273Z,29.67
2023-01-02T09:39:28.497Z,29.59
2023-01-02T09:41:56.344Z,29.59
2023-01-02T09:44:27.334Z,29.70
2023-01-02T09:47:02.987Z,29.68
2023-01-02T09:49:37.124Z,29.64
2023-01-02T09:52:06.982Z,29.61
2023-01-02T09:54:37.090Z,29.63
2023-01-02T09:57:17.058Z,29.62
2023-01-02T10:00:03.096Z,29.63
2023-01-02T10:02:39.501Z,29.64
2023-01-02T10:05:16.151Z,29.62
2023-01-02T10:07:49.718Z,29.64
2023-01-02T10:10:23.409Z,29.64
2023-01-02T10:13:11.908Z,29.65
2023-01-02T10:15:42.368Z,29.67
2023-01-02T10:18:15.808Z,29.65
2023-01-02T10:20:45.462Z,29.61
2023-01-02T10:23:19.245Z,29.63
2023-01-02T10:25:52.822Z,29.74
2023-01-02T10:28:38.288Z,29.80
2023-01-02T10:31:11.361Z,29.75
2023-01-02T10:33:43.643Z,29.67
2023-01-02T10:36:14.230Z,29.64
2023-01-02T10:38:43.618Z,29.66
2023-01-02T10:41:12.900Z,29.70
2023-01-02T10:43:42.152Z,29.70
2023-01-02T10:46:11.674Z,29.67
2023-01-02T10:48:40.957Z,29.69
2023-01-02T10:51:14.296Z,29.67
2023-01-02T10:53:45.900Z,29.67
2023-01-02T10:56:21.912Z,29.69
2023-01-02T10:58:52.176Z,29.71
2023-01-02T11:01:23.260Z,29.65
2023-01-02T11:03:53.975Z,29.70
2023-01-02T11:06:29.136Z,29.70
2023-01-02T11:09:05.153Z,29.74
2023-01-02T11:11:34.722Z,29.85
2023-01-02T11:14:11.216Z,29.79
2023-01-02T11:16:42.751Z,29.73
2023-01-02T11:19:29.495Z,29.72
2023-01-02T11:24:49.114Z,29.73
2023-01-02T11:27:19.515Z,29.76
2023-01-02T11:29:50.165Z,29.75
2023-01-02T11:32:25.584Z,29.77
2023-01-02T11:34:59.820Z,29.74
2023-01-02T11:37:29.082Z,29.75
2023-01-02T11:40:08.470Z,29.74
2023-01-02T11:43:00.122Z,29.72
2023-01-02T11:45:33.341Z,29.79
2023-01-02T11:48:06.834Z,29.76
2023-01-02T11:50:39.607Z,29.75
2023-01-02T11:53:19.466Z,29.78
2023-01-02T11:55:53.008Z,29.70
2023-01-02T11:58:39.242Z,29.63
2023-01-02T12:01:10.024Z,29.70
2023-01-02T12:03:39.733Z,29.79
2023-01-02T12:06:12.064Z,29.95
2023-01-02T12:08:51.550Z,30.07
2023-01-02T12:11:29.777Z,30.23
2023-01-02T12:14:16.629Z,30.37
2023-01-02T12:16:47.319Z,30.50
2023-01-02T12:19:21.351Z,30.61
2023-01-02T12:21:56.577Z,30.71
2023-01-02T17:35:19.230Z,30.63
2023-01-02T17:37:49.685Z,30.66
2023-01-02T17:40:19.061Z,30.71
2023-01-02T17:42:48.413Z,30.74
2023-01-02T17:45:17.707Z,30.61
2023-01-02T17:48:30.941Z,30.64
2023-01-02T17:50:20.024Z,30.59
2023-01-02T17:52:49.305Z,30.76
2023-01-02T17:55:18.694Z,30.63
2023-01-02T17:57:48.028Z,30.64
2023-01-02T18:00:19.067Z,30.74
2023-01-02T18:02:48.467Z,30.69
2023-01-02T18:05:17.750Z,30.67
2023-01-02T18:07:46.958Z,30.70
2023-01-02T18:10:20.074Z,30.67
2023-01-02T18:12:46.844Z,30.67
2023-01-02T18:15:16.404Z,30.65
2023-01-02T18:17:45.712Z,30.61
2023-01-02T18:20:15.599Z,30.55
2023-01-02T18:22:49.500Z,30.67
2023-01-02T18:25:25.014Z,30.60
2023-01-02T18:27:54.327Z,30.71
2023-01-02T18:30:24.732Z,30.65
2023-01-02T18:32:55.539Z,30.60
2023-01-02T18:37:56.405Z,30.60
2023-01-02T18:40:28.243Z,30.63
2023-01-02T18:42:59.625Z,30.63
2023-01-02T18:45:29.451Z,30.68
2023-01-02T18:47:59.501Z,30.58
2023-01-02T18:50:35.769Z,30.68
2023-01-02T18:53:21.881Z,30.65
2023-01-02T18:55:52.613Z,30.62
2023-01-02T18:58:26.318Z,30.73
2023-01-02T19:00:55.742Z,30.65
2023-01-02T19:03:26.244Z,30.68
2023-01-02T19:09:35.946Z,30.78
2023-01-02T19:12:36.199Z,30.72
2023-01-02T19:15:07.523Z,30.66
2023-01-02T19:17:36.923Z,30.62
2023-01-02T19:20:07.176Z,30.78
2023-01-02T19:22:36.842Z,30.65
2023-01-02T19:25:16.880Z,30.71
2023-01-02T19:27:46.100Z,30.72
2023-01-02T19:30:31.542Z,30.72
2023-01-02T19:33:01.481Z,30.64
2023-01-02T19:35:39.767Z,30.71
2023-01-02T19:38:18.506Z,30.74
2023-01-02T19:40:47.859Z,30.65
2023-01-02T19:43:18.657Z,30.69
2023-01-02T19:45:48.009Z,30.65
2023-01-02T19:48:18.413Z,30.73
2023-01-02T19:50:47.801Z,30.68
2023-01-02T19:53:16.988Z,30.71
2023-01-02T19:55:46.399Z,30.75
2023-01-02T19:58:15.629Z,30.77
2023-01-02T20:00:44.937Z,30.72
2023-01-02T20:03:14.613Z,30.72
2023-01-02T20:05:43.720Z,30.66
2023-01-02T20:08:12.888Z,30.73
2023-01-02T20:10:42.161Z,30.69
2023-01-02T20:13:11.473Z,30.71
2023-01-02T20:15:40.882Z,30.74
2023-01-02T20:18:30.970Z,30.83
2023-01-02T20:21:00.344Z,30.72
2023-01-02T20:23:29.561Z,30.69
2023-01-02T20:26:03.051Z,30.67
2023-01-02T20:28:34.447Z,30.63
2023-01-02T20:31:04.144Z,30.62
2023-01-02T20:33:34.123Z,30.64
2023-01-02T20:36:08.314Z,30.67
2023-01-02T20:38:35.491Z,30.57
2023-01-02T20:41:05.303Z,30.63
2023-01-02T20:43:34.952Z,30.64
2023-01-02T20:46:09.085Z,30.61
2023-01-02T20:48:38.486Z,30.65
2023-01-02T20:51:07.768Z,30.63
2023-01-02T20:53:42.570Z,30.69
2023-01-02T20:56:11.687Z,30.67
2023-01-02T20:58:43.680Z,30.60
2023-01-02T21:01:12.907Z,30.67
2023-01-02T21:03:42.419Z,30.67
2023-01-02T21:06:11.730Z,30.66
2023-01-02T21:08:41.208Z,30.64
2023-01-02T21:11:12.203Z,30.69
2023-01-02T21:13:41.347Z,30.59
2023-01-02T21:16:10.945Z,30.62
2023-01-02T21:18:44.724Z,30.65
2023-01-02T21:21:16.354Z,30.71
2023-01-02T21:23:45.832Z,30.60
2023-01-02T21:26:17.884Z,30.70
2023-01-02T21:28:50.790Z,30.63
2023-01-02T21:31:20.286Z,30.63
2023-01-02T21:33:49.586Z,30.58
2023-01-02T21:36:18.853Z,30.55
2023-01-02T21:38:48.132Z,30.52
2023-01-02T21:41:34.830Z,30.54
2023-01-02T21:44:07.749Z,30.52
2023-01-02T21:46:40.686Z,30.50
2023-01-02T21:49:13.167Z,30.51
2023-01-02T21:51:42.419Z,30.47
2023-01-02T21:54:11.614Z,30.52
2023-01-02T21:56:40.921Z,30.49
2023-01-02T21:59:11.562Z,30.52
2023-01-02T22:01:42.663Z,30.49
2023-01-02T22:04:12.154Z,30.47
2023-01-02T22:06:57.123Z,30.52
2023-01-02T22:09:12.206Z,30.49
2023-01-02T22:11:56.828Z,30.47
2023-01-02T22:14:30.577Z,30.47
2023-01-02T22:17:01.198Z,30.47
2023-01-02T22:19:30.569Z,30.47
2023-01-02T22:21:59.778Z,30.45
2023-01-02T22:24:29.027Z,30.47
2023-01-02T22:26:58.881Z,30.46
2023-01-02T22:29:51.515Z,30.43
2023-01-02T22:31:59.715Z,30.42
2023-01-02T22:34:29.222Z,30.47
2023-01-02T22:36:58.925Z,30.41
2023-01-02T22:39:28.945Z,30.44
2023-01-02T22:42:02.375Z,30.43
2023-01-02T22:44:31.594Z,30.47
2023-01-02T22:47:00.899Z,30.44
2023-01-02T22:49:31.752Z,30.42
2023-01-02T22:52:07.859Z,30.43
2023-01-02T22:54:33.037Z,30.42
2023-01-02T22:57:02.340Z,30.42
2023-01-02T22:59:31.526Z,30.53
2023-01-02T23:02:00.773Z,30.40
2023-01-02T23:04:31.486Z,30.44
2023-01-02T23:09:34.821Z,30.47
2023-01-02T23:12:04.598Z,30.46
2023-01-02T23:14:34.526Z,30.52
2023-01-02T23:17:22.061Z,30.43
2023-01-02T23:19:51.421Z,30.51
2023-01-02T23:22:20.654Z,30.46
2023-01-02T23:24:49.962Z,30.45
2023-01-02T23:27:21.912Z,30.44
2023-01-02T23:29:53.778Z,30.41
2023-01-02T23:32:23.086Z,30.46
2023-01-02T23:34:52.799Z,30.42
2023-01-02T23:37:22.421Z,30.45
2023-01-02T23:39:51.791Z,30.44
2023-01-02T23:42:21.510Z,30.40
2023-01-02T23:44:50.747Z,30.43
2023-01-02T23:47:20.064Z,30.40
2023-01-02T23:49:51.953Z,30.39
2023-01-02T23:52:21.141Z,30.43
2023-01-02T23:54:50.357Z,30.40
2023-01-02T23:57:19.649Z,30.41
2023-01-02T23:59:48.873Z,30.44
